createdAt,value
2022-08-25T00:00:21.652Z,5.40
2022-08-25T00:06:23.616Z,4.65
2022-08-25T00:12:26.325Z,5.38
2022-08-25T00:18:28.298Z,4.55
2022-08-25T00:24:30.578Z,5.18
2022-08-25T00:30:32.364Z,4.05
2022-08-25T00:36:35.146Z,4.80
2022-08-25T00:42:37.931Z,4.63
2022-08-25T00:48:42.468Z,4.32
2022-08-25T00:54:55.100Z,5.13
2022-08-25T01:00:58.036Z,4.93
2022-08-25T01:07:02.004Z,4.25
2022-08-25T01:13:14.612Z,3.80
2022-08-25T01:19:19.314Z,4.60
2022-08-25T01:25:45.780Z,4.03
2022-08-25T01:31:49.266Z,4.93
2022-08-25T01:37:50.995Z,4.30
2022-08-25T01:43:52.725Z,4.78
2022-08-25T01:49:54.449Z,4.35
2022-08-25T01:56:02.658Z,3.63
2022-08-25T02:02:05.949Z,4.40
2022-08-25T02:08:07.948Z,3.72
2022-08-25T02:14:11.832Z,3.88
2022-08-25T02:20:13.585Z,3.63
2022-08-25T02:26:16.982Z,3.75
2022-08-25T02:32:18.683Z,4.45
2022-08-25T02:38:20.505Z,3.78
2022-08-25T02:44:22.232Z,3.95
2022-08-25T02:50:25.000Z,3.60
2022-08-25T02:56:27.251Z,3.72
2022-08-25T03:02:28.977Z,3.63
2022-08-25T03:08:30.873Z,4.13
2022-08-25T03:14:32.573Z,3.15
2022-08-25T03:20:35.820Z,4.35
2022-08-25T03:26:54.186Z,3.60
2022-08-25T03:32:56.486Z,4.05
2022-08-25T03:38:58.306Z,3.08
2022-08-25T03:45:04.963Z,3.78
2022-08-25T03:51:06.783Z,4.00
2022-08-25T03:57:09.714Z,3.45
2022-08-25T04:03:11.467Z,3.80
2022-08-25T04:09:13.718Z,3.53
2022-08-25T04:15:15.848Z,4.38
2022-08-25T04:21:20.474Z,3.78
2022-08-25T04:27:22.229Z,3.63
2022-08-25T04:33:24.007Z,4.15
2022-08-25T04:39:25.731Z,4.60
2022-08-25T04:45:27.617Z,3.80
2022-08-25T04:51:36.016Z,3.80
2022-08-25T04:57:37.740Z,3.97
2022-08-25T05:03:39.486Z,6.97
2022-08-25T05:09:41.501Z,7.10
2022-08-25T05:15:52.058Z,6.50
2022-08-25T05:21:54.244Z,5.90
2022-08-25T05:27:56.010Z,8.73
2022-08-25T05:34:01.170Z,8.02
2022-08-25T05:40:03.301Z,10.07
2022-08-25T05:46:05.337Z,9.43
2022-08-25T05:52:07.317Z,8.63
2022-08-25T05:58:10.105Z,6.03
2022-08-25T06:04:16.162Z,7.80
2022-08-25T06:10:20.357Z,7.22
2022-08-25T06:16:22.527Z,6.18
2022-08-25T06:22:25.971Z,6.95
2022-08-25T06:28:27.799Z,6.88
2022-08-25T06:34:29.760Z,6.63
2022-08-25T06:40:31.627Z,6.32
2022-08-25T06:46:35.590Z,6.60
2022-08-25T06:52:38.687Z,6.13
2022-08-25T06:58:40.637Z,6.20
2022-08-25T07:04:42.682Z,5.85
2022-08-25T07:10:46.932Z,5.93
2022-08-25T07:16:50.337Z,6.70
2022-08-25T07:22:53.201Z,5.50
2022-08-25T07:28:55.926Z,6.55
2022-08-25T07:35:15.546Z,6.20
2022-08-25T07:41:17.456Z,6.97
2022-08-25T07:47:19.317Z,5.97
2022-08-25T07:53:25.918Z,5.35
2022-08-25T07:59:27.671Z,6.53
2022-08-25T08:05:29.405Z,5.97
2022-08-25T08:11:34.788Z,5.90
2022-08-25T08:17:39.783Z,5.15
2022-08-25T08:23:41.597Z,5.70
2022-08-25T08:29:44.029Z,5.95
2022-08-25T08:35:45.782Z,5.85
2022-08-25T08:42:16.797Z,6.65
2022-08-25T08:48:37.476Z,5.05
2022-08-25T08:54:43.765Z,6.53
2022-08-25T09:00:54.483Z,6.10
2022-08-25T09:06:59.267Z,6.32
2022-08-25T09:13:36.871Z,6.45
2022-08-25T09:20:01.041Z,5.63
2022-08-25T09:26:38.068Z,5.85
2022-08-25T09:32:47.455Z,5.90
2022-08-25T09:38:55.550Z,5.70
2022-08-25T09:44:57.937Z,4.90
2022-08-25T09:51:10.328Z,4.80
2022-08-25T09:57:49.253Z,6.95
2022-08-25T10:04:06.006Z,5.95
2022-08-25T10:10:22.365Z,5.75
2022-08-25T10:16:30.834Z,5.75
2022-08-25T10:22:35.932Z,5.85
2022-08-25T10:28:50.158Z,5.63
2022-08-25T10:34:58.226Z,5.80
2022-08-25T10:41:18.956Z,5.18
2022-08-25T10:47:43.688Z,4.75
2022-08-25T10:54:00.493Z,5.45
2022-08-25T11:00:13.791Z,5.53
2022-08-25T11:06:28.538Z,5.90
2022-08-25T11:12:39.218Z,5.03
2022-08-25T11:18:51.507Z,5.85
2022-08-25T11:25:04.098Z,7.13
2022-08-25T11:31:08.998Z,6.18
2022-08-25T11:37:29.898Z,9.00
2022-08-25T11:43:48.779Z,7.97
2022-08-25T11:49:54.722Z,7.13
2022-08-25T11:56:04.514Z,6.75
2022-08-25T12:02:06.809Z,6.40
2022-08-25T12:08:46.770Z,6.53
2022-08-25T12:14:48.527Z,5.63
2022-08-25T12:20:53.433Z,5.68
2022-08-25T12:26:59.317Z,6.22
2022-08-25T12:33:22.652Z,5.80
2022-08-25T12:39:45.339Z,5.80
2022-08-25T12:45:50.174Z,5.15
2022-08-25T12:52:17.170Z,4.47
2022-08-25T12:58:19.112Z,4.60
2022-08-25T13:04:29.930Z,4.90
2022-08-25T13:10:58.331Z,4.25
2022-08-25T13:17:01.083Z,4.90
2022-08-25T13:23:04.044Z,3.92
2022-08-25T13:29:09.362Z,3.95
2022-08-25T13:35:19.981Z,4.28
2022-08-25T13:41:29.384Z,3.67
2022-08-25T13:47:45.333Z,3.67
2022-08-25T13:54:00.139Z,3.95
2022-08-25T14:00:09.366Z,4.43
2022-08-25T14:06:19.903Z,3.70
2022-08-25T14:12:40.156Z,2.85
2022-08-25T14:18:59.775Z,2.78
2022-08-25T14:25:01.496Z,2.95
2022-08-25T14:31:13.684Z,2.95
2022-08-25T14:37:20.802Z,3.15
2022-08-25T14:43:31.431Z,3.03
2022-08-25T14:49:38.129Z,3.15
2022-08-25T14:55:42.397Z,2.83
2022-08-25T15:01:44.595Z,2.58
2022-08-25T15:08:05.388Z,2.88
2022-08-25T15:14:10.787Z,2.30
2022-08-25T15:20:13.506Z,2.72
2022-08-25T15:26:18.608Z,4.57
2022-08-25T15:32:20.404Z,5.20
2022-08-25T15:38:22.111Z,6.65
2022-08-25T15:44:29.024Z,6.07
2022-08-25T15:50:31.295Z,6.25
2022-08-25T15:56:34.323Z,5.75
2022-08-25T16:02:36.007Z,6.95
2022-08-25T16:08:38.481Z,6.47
2022-08-25T16:14:40.510Z,5.85
2022-08-25T16:20:47.726Z,5.97
2022-08-25T16:26:50.256Z,5.38
2022-08-25T16:32:53.476Z,3.78
2022-08-25T16:38:57.009Z,4.85
2022-08-25T16:44:58.670Z,4.70
2022-08-25T16:51:00.412Z,4.85
2022-08-25T16:57:02.111Z,3.58
2022-08-25T17:03:05.017Z,3.35
2022-08-25T17:09:09.127Z,4.00
2022-08-25T17:15:10.999Z,4.30
2022-08-25T17:21:19.526Z,4.30
2022-08-25T17:27:26.786Z,3.88
2022-08-25T17:33:28.506Z,3.78
2022-08-25T17:39:30.309Z,3.92
2022-08-25T17:45:32.560Z,3.58
2022-08-25T17:51:34.344Z,3.90
2022-08-25T17:57:36.089Z,3.10
2022-08-25T18:03:39.038Z,4.25
2022-08-25T18:09:44.181Z,3.28
2022-08-25T18:15:47.003Z,3.15
2022-08-25T18:21:49.333Z,3.50
2022-08-25T18:27:55.258Z,3.88
2022-08-25T18:33:57.800Z,4.20
2022-08-25T18:40:18.113Z,4.30
2022-08-25T18:46:22.748Z,4.13
2022-08-25T18:52:24.588Z,3.63
2022-08-25T18:58:26.664Z,4.22
2022-08-25T19:04:31.895Z,3.80
2022-08-25T19:10:35.994Z,3.28
2022-08-25T19:16:40.246Z,3.88
2022-08-25T19:22:42.379Z,4.50
2022-08-25T19:28:45.817Z,3.75
2022-08-25T19:34:54.713Z,2.95
2022-08-25T19:40:57.161Z,3.28
2022-08-25T19:46:59.827Z,3.08
2022-08-25T19:53:02.035Z,3.22
2022-08-25T19:59:04.975Z,3.95
2022-08-25T20:05:07.320Z,3.25
2022-08-25T20:11:09.003Z,3.35
2022-08-25T20:17:23.546Z,3.40
2022-08-25T20:23:45.241Z,3.42
2022-08-25T20:29:50.551Z,4.10
2022-08-25T20:35:53.148Z,3.42
2022-08-25T20:41:55.058Z,3.17
2022-08-25T20:47:56.722Z,3.17
2022-08-25T20:53:58.482Z,3.03
2022-08-25T21:00:00.216Z,2.92
2022-08-25T21:06:08.779Z,2.75
2022-08-25T21:12:10.415Z,2.67
2022-08-25T21:18:12.124Z,3.42
2022-08-25T21:24:14.099Z,2.83
2022-08-25T21:30:15.786Z,3.50
2022-08-25T21:36:21.116Z,3.35
2022-08-25T21:42:24.001Z,2.75
2022-08-25T21:48:26.708Z,3.15
2022-08-25T21:54:29.319Z,3.40
2022-08-25T22:00:31.023Z,3.25
2022-08-25T22:06:34.068Z,3.88
2022-08-25T22:12:36.485Z,3.35
2022-08-25T22:18:39.371Z,2.33
2022-08-25T22:24:44.311Z,3.13
2022-08-25T22:30:46.022Z,3.10
2022-08-25T22:36:49.091Z,3.22
2022-08-25T22:42:50.871Z,3.67
2022-08-25T22:48:52.627Z,3.13
2022-08-25T22:54:54.389Z,3.28
2022-08-25T23:00:57.876Z,3.47
2022-08-25T23:07:00.231Z,2.95
2022-08-25T23:13:02.155Z,2.92
2022-08-25T23:19:11.010Z,2.70
2022-08-25T23:25:17.227Z,2.95
2022-08-25T23:31:20.083Z,2.50
2022-08-25T23:37:22.834Z,2.55
2022-08-25T23:43:25.832Z,3.00
2022-08-25T23:49:27.579Z,2.42
2022-08-25T23:55:33.459Z,2.65
